sensor_id;sensor_type;location;lat;lon;timestamp;temperature;humidity
76384;SHT30;65204;48.606;7.598;2023-04-25T00:00:01;13.47;57.77
76384;SHT30;65204;48.606;7.598;2023-04-25T00:00:33;13.43;57.97
76384;SHT30;65204;48.606;7.598;2023-04-25T00:01:03;13.45;57.92
76384;SHT30;65204;48.606;7.598;2023-04-25T00:01:35;13.44;57.96
76384;SHT30;65204;48.606;7.598;2023-04-25T00:02:06;13.43;58.07
76384;SHT30;65204;48.606;7.598;2023-04-25T00:02:37;13.41;58.06
76384;SHT30;65204;48.606;7.598;2023-04-25T00:03:07;13.41;58.08
76384;SHT30;65204;48.606;7.598;2023-04-25T00:03:39;13.40;58.03
76384;SHT30;65204;48.606;7.598;2023-04-25T00:04:10;13.40;58.27
76384;SHT30;65204;48.606;7.598;2023-04-25T00:04:42;13.38;58.65
76384;SHT30;65204;48.606;7.598;2023-04-25T00:05:12;13.37;58.33
76384;SHT30;65204;48.606;7.598;2023-04-25T00:05:45;13.40;58.48
76384;SHT30;65204;48.606;7.598;2023-04-25T00:06:15;13.38;58.31
76384;SHT30;65204;48.606;7.598;2023-04-25T00:06:48;13.35;58.40
76384;SHT30;65204;48.606;7.598;2023-04-25T00:07:18;13.37;58.26
76384;SHT30;65204;48.606;7.598;2023-04-25T00:07:50;13.37;58.53
76384;SHT30;65204;48.606;7.598;2023-04-25T00:08:20;13.35;58.60
76384;SHT30;65204;48.606;7.598;2023-04-25T00:08:51;13.31;58.59
76384;SHT30;65204;48.606;7.598;2023-04-25T00:09:22;13.34;58.73
76384;SHT30;65204;48.606;7.598;2023-04-25T00:09:52;13.34;58.50
76384;SHT30;65204;48.606;7.598;2023-04-25T00:10:22;13.31;58.42
76384;SHT30;65204;48.606;7.598;2023-04-25T00:10:53;13.35;58.45
76384;SHT30;65204;48.606;7.598;2023-04-25T00:11:23;13.35;58.37
76384;SHT30;65204;48.606;7.598;2023-04-25T00:11:54;13.34;58.51
76384;SHT30;65204;48.606;7.598;2023-04-25T00:12:24;13.31;58.52
76384;SHT30;65204;48.606;7.598;2023-04-25T00:12:55;13.31;58.68
76384;SHT30;65204;48.606;7.598;2023-04-25T00:13:25;13.34;58.48
76384;SHT30;65204;48.606;7.598;2023-04-25T00:13:56;13.34;58.54
76384;SHT30;65204;48.606;7.598;2023-04-25T00:14:27;13.34;58.47
76384;SHT30;65204;48.606;7.598;2023-04-25T00:14:57;13.33;58.50
76384;SHT30;65204;48.606;7.598;2023-04-25T00:15:30;13.37;58.31
76384;SHT30;65204;48.606;7.598;2023-04-25T00:16:01;13.40;58.23
76384;SHT30;65204;48.606;7.598;2023-04-25T00:16:32;13.41;58.09
76384;SHT30;65204;48.606;7.598;2023-04-25T00:17:04;13.40;57.94
76384;SHT30;65204;48.606;7.598;2023-04-25T00:17:35;13.41;58.22
76384;SHT30;65204;48.606;7.598;2023-04-25T00:18:08;13.41;58.17
76384;SHT30;65204;48.606;7.598;2023-04-25T00:18:38;13.38;58.27
76384;SHT30;65204;48.606;7.598;2023-04-25T00:19:09;13.43;58.12
76384;SHT30;65204;48.606;7.598;2023-04-25T00:19:40;13.40;58.16
76384;SHT30;65204;48.606;7.598;2023-04-25T00:20:11;13.43;58.20
76384;SHT30;65204;48.606;7.598;2023-04-25T00:20:41;13.47;57.92
76384;SHT30;65204;48.606;7.598;2023-04-25T00:21:17;13.44;58.17
76384;SHT30;65204;48.606;7.598;2023-04-25T00:21:48;13.47;58.12
76384;SHT30;65204;48.606;7.598;2023-04-25T00:22:20;13.41;58.46
76384;SHT30;65204;48.606;7.598;2023-04-25T00:22:51;13.41;58.37
76384;SHT30;65204;48.606;7.598;2023-04-25T00:23:23;13.41;58.22
76384;SHT30;65204;48.606;7.598;2023-04-25T00:23:54;13.44;57.92
76384;SHT30;65204;48.606;7.598;2023-04-25T00:24:25;13.41;58.02
76384;SHT30;65204;48.606;7.598;2023-04-25T00:24:55;13.43;58.08
76384;SHT30;65204;48.606;7.598;2023-04-25T00:25:27;13.41;58.13
76384;SHT30;65204;48.606;7.598;2023-04-25T00:25:57;13.43;58.24
76384;SHT30;65204;48.606;7.598;2023-04-25T00:26:28;13.38;58.25
76384;SHT30;65204;48.606;7.598;2023-04-25T00:26:58;13.38;58.40
76384;SHT30;65204;48.606;7.598;2023-04-25T00:27:28;13.37;58.38
76384;SHT30;65204;48.606;7.598;2023-04-25T00:27:59;13.34;58.57
76384;SHT30;65204;48.606;7.598;2023-04-25T00:28:29;13.35;58.45
76384;SHT30;65204;48.606;7.598;2023-04-25T00:28:59;13.33;58.61
76384;SHT30;65204;48.606;7.598;2023-04-25T00:29:30;13.33;58.64
76384;SHT30;65204;48.606;7.598;2023-04-25T00:30:00;13.34;58.62
76384;SHT30;65204;48.606;7.598;2023-04-25T00:30:30;13.33;58.72
76384;SHT30;65204;48.606;7.598;2023-04-25T00:31:01;13.30;58.90
76384;SHT30;65204;48.606;7.598;2023-04-25T00:31:31;13.31;58.71
76384;SHT30;65204;48.606;7.598;2023-04-25T00:32:02;13.33;58.63
76384;SHT30;65204;48.606;7.598;2023-04-25T00:32:32;13.31;58.61
76384;SHT30;65204;48.606;7.598;2023-04-25T00:33:02;13.33;58.64
76384;SHT30;65204;48.606;7.598;2023-04-25T00:33:33;13.31;58.61
76384;SHT30;65204;48.606;7.598;2023-04-25T00:34:03;13.31;58.77
76384;SHT30;65204;48.606;7.598;2023-04-25T00:34:33;13.31;58.68
76384;SHT30;65204;48.606;7.598;2023-04-25T00:35:04;13.31;58.49
76384;SHT30;65204;48.606;7.598;2023-04-25T00:35:34;13.31;58.62
76384;SHT30;65204;48.606;7.598;2023-04-25T00:36:05;13.31;58.71
76384;SHT30;65204;48.606;7.598;2023-04-25T00:36:36;13.30;58.72
76384;SHT30;65204;48.606;7.598;2023-04-25T00:37:06;13.27;58.77
76384;SHT30;65204;48.606;7.598;2023-04-25T00:37:37;13.27;58.82
76384;SHT30;65204;48.606;7.598;2023-04-25T00:38:07;13.30;58.63
76384;SHT30;65204;48.606;7.598;2023-04-25T00:38:38;13.30;58.87
76384;SHT30;65204;48.606;7.598;2023-04-25T00:39:08;13.31;58.80
76384;SHT30;65204;48.606;7.598;2023-04-25T00:39:38;13.33;58.81
76384;SHT30;65204;48.606;7.598;2023-04-25T00:40:09;13.37;59.02
76384;SHT30;65204;48.606;7.598;2023-04-25T00:40:40;13.33;58.96
76384;SHT30;65204;48.606;7.598;2023-04-25T00:41:13;13.33;59.06
76384;SHT30;65204;48.606;7.598;2023-04-25T00:41:44;13.33;58.93
76384;SHT30;65204;48.606;7.598;2023-04-25T00:42:15;13.34;59.19
76384;SHT30;65204;48.606;7.598;2023-04-25T00:42:47;13.34;59.14
76384;SHT30;65204;48.606;7.598;2023-04-25T00:43:17;13.34;59.28
76384;SHT30;65204;48.606;7.598;2023-04-25T00:43:48;13.34;59.25
76384;SHT30;65204;48.606;7.598;2023-04-25T00:44:19;13.35;58.98
76384;SHT30;65204;48.606;7.598;2023-04-25T00:44:51;13.33;58.97
76384;SHT30;65204;48.606;7.598;2023-04-25T00:45:27;13.35;58.82
76384;SHT30;65204;48.606;7.598;2023-04-25T00:46:00;13.37;58.92
76384;SHT30;65204;48.606;7.598;2023-04-25T00:46:31;13.34;58.99
76384;SHT30;65204;48.606;7.598;2023-04-25T00:47:01;13.37;58.97
76384;SHT30;65204;48.606;7.598;2023-04-25T00:47:32;13.35;59.04
76384;SHT30;65204;48.606;7.598;2023-04-25T00:48:04;13.35;59.11
76384;SHT30;65204;48.606;7.598;2023-04-25T00:48:34;13.38;59.10
76384;SHT30;65204;48.606;7.598;2023-04-25T00:49:05;13.37;59.12
76384;SHT30;65204;48.606;7.598;2023-04-25T00:49:35;13.37;59.14
76384;SHT30;65204;48.606;7.598;2023-04-25T00:50:06;13.37;58.97
76384;SHT30;65204;48.606;7.598;2023-04-25T00:50:37;13.35;58.83
76384;SHT30;65204;48.606;7.598;2023-04-25T00:51:16;13.38;59.03
76384;SHT30;65204;48.606;7.598;2023-04-25T00:51:49;13.38;58.81
76384;SHT30;65204;48.606;7.598;2023-04-25T00:52:20;13.37;59.00
76384;SHT30;65204;48.606;7.598;2023-04-25T00:52:50;13.37;58.97
76384;SHT30;65204;48.606;7.598;2023-04-25T00:53:22;13.35;59.03
76384;SHT30;65204;48.606;7.598;2023-04-25T00:53:53;13.35;59.22
76384;SHT30;65204;48.606;7.598;2023-04-25T00:54:24;13.38;59.15
76384;SHT30;65204;48.606;7.598;2023-04-25T00:54:55;13.37;59.20
76384;SHT30;65204;48.606;7.598;2023-04-25T00:55:25;13.37;59.22
76384;SHT30;65204;48.606;7.598;2023-04-25T00:55:56;13.38;59.22
76384;SHT30;65204;48.606;7.598;2023-04-25T00:56:26;13.40;59.20
76384;SHT30;65204;48.606;7.598;2023-04-25T00:56:56;13.41;59.21
76384;SHT30;65204;48.606;7.598;2023-04-25T00:57:27;13.41;59.09
76384;SHT30;65204;48.606;7.598;2023-04-25T00:57:58;13.43;59.07
76384;SHT30;65204;48.606;7.598;2023-04-25T00:58:29;13.40;59.03
76384;SHT30;65204;48.606;7.598;2023-04-25T00:58:59;13.41;58.88
76384;SHT30;65204;48.606;7.598;2023-04-25T00:59:30;13.40;58.71
76384;SHT30;65204;48.606;7.598;2023-04-25T01:00:01;13.40;58.63
76384;SHT30;65204;48.606;7.598;2023-04-25T01:00:31;13.40;58.67
76384;SHT30;65204;48.606;7.598;2023-04-25T01:01:02;13.40;58.63
76384;SHT30;65204;48.606;7.598;2023-04-25T01:01:32;13.41;58.84
76384;SHT30;65204;48.606;7.598;2023-04-25T01:02:04;13.38;59.14
76384;SHT30;65204;48.606;7.598;2023-04-25T01:02:35;13.37;59.35
76384;SHT30;65204;48.606;7.598;2023-04-25T01:03:05;13.37;59.39
76384;SHT30;65204;48.606;7.598;2023-04-25T01:03:38;13.34;59.50
76384;SHT30;65204;48.606;7.598;2023-04-25T01:04:13;13.37;59.32
76384;SHT30;65204;48.606;7.598;2023-04-25T01:04:44;13.35;59.96
76384;SHT30;65204;48.606;7.598;2023-04-25T01:05:14;13.35;59.77
76384;SHT30;65204;48.606;7.598;2023-04-25T01:05:45;13.38;60.25
76384;SHT30;65204;48.606;7.598;2023-04-25T01:06:16;13.35;59.81
76384;SHT30;65204;48.606;7.598;2023-04-25T01:06:47;13.37;59.83
76384;SHT30;65204;48.606;7.598;2023-04-25T01:07:18;13.34;59.95
76384;SHT30;65204;48.606;7.598;2023-04-25T01:07:49;13.37;60.22
76384;SHT30;65204;48.606;7.598;2023-04-25T01:08:23;13.34;60.59
76384;SHT30;65204;48.606;7.598;2023-04-25T01:08:54;13.28;60.92
76384;SHT30;65204;48.606;7.598;2023-04-25T01:09:25;13.25;60.97
76384;SHT30;65204;48.606;7.598;2023-04-25T01:09:56;13.27;60.52
76384;SHT30;65204;48.606;7.598;2023-04-25T01:10:27;13.24;59.98
76384;SHT30;65204;48.606;7.598;2023-04-25T01:10:57;13.24;59.88
76384;SHT30;65204;48.606;7.598;2023-04-25T01:11:27;13.23;60.37
76384;SHT30;65204;48.606;7.598;2023-04-25T01:11:58;13.21;60.03
76384;SHT30;65204;48.606;7.598;2023-04-25T01:12:28;13.23;59.60
76384;SHT30;65204;48.606;7.598;2023-04-25T01:12:59;13.21;59.51
76384;SHT30;65204;48.606;7.598;2023-04-25T01:13:29;13.20;59.55
76384;SHT30;65204;48.606;7.598;2023-04-25T01:14:00;13.17;59.74
76384;SHT30;65204;48.606;7.598;2023-04-25T01:14:32;13.17;59.80
76384;SHT30;65204;48.606;7.598;2023-04-25T01:15:02;13.15;59.88
76384;SHT30;65204;48.606;7.598;2023-04-25T01:15:33;13.13;60.22
76384;SHT30;65204;48.606;7.598;2023-04-25T01:16:03;13.13;59.94
76384;SHT30;65204;48.606;7.598;2023-04-25T01:16:34;13.13;60.15
76384;SHT30;65204;48.606;7.598;2023-04-25T01:17:04;13.13;60.30
76384;SHT30;65204;48.606;7.598;2023-04-25T01:17:35;13.15;60.24
76384;SHT30;65204;48.606;7.598;2023-04-25T01:18:06;13.13;60.13
76384;SHT30;65204;48.606;7.598;2023-04-25T01:18:39;13.13;60.21
76384;SHT30;65204;48.606;7.598;2023-04-25T01:19:10;13.15;60.35
76384;SHT30;65204;48.606;7.598;2023-04-25T01:19:43;13.14;60.07
76384;SHT30;65204;48.606;7.598;2023-04-25T01:20:16;13.15;60.47
76384;SHT30;65204;48.606;7.598;2023-04-25T01:20:48;13.15;60.37
76384;SHT30;65204;48.606;7.598;2023-04-25T01:21:20;13.11;60.29
76384;SHT30;65204;48.606;7.598;2023-04-25T01:21:51;13.10;60.26
76384;SHT30;65204;48.606;7.598;2023-04-25T01:22:21;13.10;60.37
76384;SHT30;65204;48.606;7.598;2023-04-25T01:22:52;13.08;60.44
76384;SHT30;65204;48.606;7.598;2023-04-25T01:23:23;13.08;60.20
76384;SHT30;65204;48.606;7.598;2023-04-25T01:23:54;13.11;60.27
76384;SHT30;65204;48.606;7.598;2023-04-25T01:24:24;13.10;60.11
76384;SHT30;65204;48.606;7.598;2023-04-25T01:24:56;13.10;60.04
76384;SHT30;65204;48.606;7.598;2023-04-25T01:25:26;13.11;60.03
76384;SHT30;65204;48.606;7.598;2023-04-25T01:25:57;13.08;60.36
76384;SHT30;65204;48.606;7.598;2023-04-25T01:26:27;13.08;60.42
76384;SHT30;65204;48.606;7.598;2023-04-25T01:26:59;13.07;60.39
76384;SHT30;65204;48.606;7.598;2023-04-25T01:27:30;13.04;60.52
76384;SHT30;65204;48.606;7.598;2023-04-25T01:28:01;13.06;60.33
76384;SHT30;65204;48.606;7.598;2023-04-25T01:28:33;13.03;60.47
76384;SHT30;65204;48.606;7.598;2023-04-25T01:29:04;12.99;60.50
76384;SHT30;65204;48.606;7.598;2023-04-25T01:29:35;13.00;60.52
76384;SHT30;65204;48.606;7.598;2023-04-25T01:30:06;12.99;60.41
76384;SHT30;65204;48.606;7.598;2023-04-25T01:30:38;12.97;60.34
76384;SHT30;65204;48.606;7.598;2023-04-25T01:31:09;12.96;60.37
76384;SHT30;65204;48.606;7.598;2023-04-25T01:31:40;12.96;60.27
76384;SHT30;65204;48.606;7.598;2023-04-25T01:32:11;13.02;60.35
76384;SHT30;65204;48.606;7.598;2023-04-25T01:32:42;13.00;60.24
76384;SHT30;65204;48.606;7.598;2023-04-25T01:33:14;13.00;60.11
76384;SHT30;65204;48.606;7.598;2023-04-25T01:33:45;13.03;60.11
76384;SHT30;65204;48.606;7.598;2023-04-25T01:34:15;13.02;60.14
76384;SHT30;65204;48.606;7.598;2023-04-25T01:34:46;12.97;60.28
76384;SHT30;65204;48.606;7.598;2023-04-25T01:35:16;12.96;60.36
76384;SHT30;65204;48.606;7.598;2023-04-25T01:35:46;12.96;60.48
76384;SHT30;65204;48.606;7.598;2023-04-25T01:36:17;12.96;60.42
76384;SHT30;65204;48.606;7.598;2023-04-25T01:36:49;12.94;60.57
76384;SHT30;65204;48.606;7.598;2023-04-25T01:37:20;12.94;60.49
76384;SHT30;65204;48.606;7.598;2023-04-25T01:37:51;12.93;60.54
76384;SHT30;65204;48.606;7.598;2023-04-25T01:38:21;12.92;60.55
76384;SHT30;65204;48.606;7.598;2023-04-25T01:38:52;12.87;60.45
76384;SHT30;65204;48.606;7.598;2023-04-25T01:39:23;12.90;60.43
76384;SHT30;65204;48.606;7.598;2023-04-25T01:39:53;12.86;60.32
76384;SHT30;65204;48.606;7.598;2023-04-25T01:40:24;12.89;60.58
76384;SHT30;65204;48.606;7.598;2023-04-25T01:40:55;12.87;60.47
76384;SHT30;65204;48.606;7.598;2023-04-25T01:41:26;12.87;60.36
76384;SHT30;65204;48.606;7.598;2023-04-25T01:41:58;12.86;60.70
76384;SHT30;65204;48.606;7.598;2023-04-25T01:42:29;12.80;60.59
76384;SHT30;65204;48.606;7.598;2023-04-25T01:42:59;12.79;61.01
76384;SHT30;65204;48.606;7.598;2023-04-25T01:43:30;12.76;61.13
76384;SHT30;65204;48.606;7.598;2023-04-25T01:44:01;12.73;61.18
76384;SHT30;65204;48.606;7.598;2023-04-25T01:44:32;12.69;61.18
76384;SHT30;65204;48.606;7.598;2023-04-25T01:45:03;12.70;60.98
76384;SHT30;65204;48.606;7.598;2023-04-25T01:45:34;12.69;61.16
76384;SHT30;65204;48.606;7.598;2023-04-25T01:46:06;12.69;61.15
76384;SHT30;65204;48.606;7.598;2023-04-25T01:46:36;12.66;61.26
76384;SHT30;65204;48.606;7.598;2023-04-25T01:47:07;12.67;61.22
76384;SHT30;65204;48.606;7.598;2023-04-25T01:47:38;12.63;61.49
76384;SHT30;65204;48.606;7.598;2023-04-25T01:48:12;12.62;61.41
76384;SHT30;65204;48.606;7.598;2023-04-25T01:48:43;12.63;61.34
76384;SHT30;65204;48.606;7.598;2023-04-25T01:49:13;12.60;61.40
76384;SHT30;65204;48.606;7.598;2023-04-25T01:49:44;12.62;61.52
76384;SHT30;65204;48.606;7.598;2023-04-25T01:50:16;12.59;61.63
76384;SHT30;65204;48.606;7.598;2023-04-25T01:50:46;12.56;61.73
76384;SHT30;65204;48.606;7.598;2023-04-25T01:51:16;12.56;61.66
76384;SHT30;65204;48.606;7.598;2023-04-25T01:51:47;12.55;61.79
76384;SHT30;65204;48.606;7.598;2023-04-25T01:52:18;12.55;61.82
76384;SHT30;65204;48.606;7.598;2023-04-25T01:52:49;12.55;61.75
76384;SHT30;65204;48.606;7.598;2023-04-25T01:53:19;12.55;61.58
76384;SHT30;65204;48.606;7.598;2023-04-25T01:53:50;12.53;61.61
76384;SHT30;65204;48.606;7.598;2023-04-25T01:54:21;12.53;61.71
76384;SHT30;65204;48.606;7.598;2023-04-25T01:54:51;12.56;61.83
76384;SHT30;65204;48.606;7.598;2023-04-25T01:55:22;12.56;61.79
76384;SHT30;65204;48.606;7.598;2023-04-25T01:55:53;12.53;61.78
76384;SHT30;65204;48.606;7.598;2023-04-25T01:56:23;12.56;61.82
76384;SHT30;65204;48.606;7.598;2023-04-25T01:56:57;12.55;61.72
76384;SHT30;65204;48.606;7.598;2023-04-25T01:57:27;12.57;61.83
76384;SHT30;65204;48.606;7.598;2023-04-25T01:57:57;12.53;61.92
76384;SHT30;65204;48.606;7.598;2023-04-25T01:58:29;12.55;61.89
76384;SHT30;65204;48.606;7.598;2023-04-25T01:59:00;12.56;62.08
76384;SHT30;65204;48.606;7.598;2023-04-25T01:59:30;12.55;62.13
76384;SHT30;65204;48.606;7.598;2023-04-25T02:00:03;12.56;62.10
76384;SHT30;65204;48.606;7.598;2023-04-25T02:00:34;12.57;62.17
76384;SHT30;65204;48.606;7.598;2023-04-25T02:01:04;12.56;62.19
76384;SHT30;65204;48.606;7.598;2023-04-25T02:01:34;12.57;62.19
76384;SHT30;65204;48.606;7.598;2023-04-25T02:02:05;12.57;62.17
76384;SHT30;65204;48.606;7.598;2023-04-25T02:02:35;12.57;62.22
76384;SHT30;65204;48.606;7.598;2023-04-25T02:03:06;12.59;62.06
76384;SHT30;65204;48.606;7.598;2023-04-25T02:03:36;12.57;62.24
76384;SHT30;65204;48.606;7.598;2023-04-25T02:04:07;12.59;62.08
76384;SHT30;65204;48.606;7.598;2023-04-25T02:04:37;12.62;61.86
76384;SHT30;65204;48.606;7.598;2023-04-25T02:05:07;12.63;62.01
76384;SHT30;65204;48.606;7.598;2023-04-25T02:05:39;12.66;61.82
76384;SHT30;65204;48.606;7.598;2023-04-25T02:06:09;12.66;61.95
76384;SHT30;65204;48.606;7.598;2023-04-25T02:06:39;12.67;62.02
76384;SHT30;65204;48.606;7.598;2023-04-25T02:07:10;12.67;62.01
76384;SHT30;65204;48.606;7.598;2023-04-25T02:07:40;12.67;61.97
76384;SHT30;65204;48.606;7.598;2023-04-25T02:08:10;12.69;61.75
76384;SHT30;65204;48.606;7.598;2023-04-25T02:08:41;12.70;61.91
76384;SHT30;65204;48.606;7.598;2023-04-25T02:09:11;12.70;61.79
76384;SHT30;65204;48.606;7.598;2023-04-25T02:09:41;12.72;61.91
76384;SHT30;65204;48.606;7.598;2023-04-25T02:10:12;12.73;61.63
76384;SHT30;65204;48.606;7.598;2023-04-25T02:10:42;12.75;61.93
76384;SHT30;65204;48.606;7.598;2023-04-25T02:11:13;12.70;61.74
76384;SHT30;65204;48.606;7.598;2023-04-25T02:11:43;12.72;62.00
76384;SHT30;65204;48.606;7.598;2023-04-25T02:12:14;12.70;62.27
76384;SHT30;65204;48.606;7.598;2023-04-25T02:12:44;12.67;62.21
76384;SHT30;65204;48.606;7.598;2023-04-25T02:13:15;12.69;62.39
76384;SHT30;65204;48.606;7.598;2023-04-25T02:13:45;12.67;62.21
76384;SHT30;65204;48.606;7.598;2023-04-25T02:14:16;12.67;62.20
76384;SHT30;65204;48.606;7.598;2023-04-25T02:14:46;12.69;62.33
76384;SHT30;65204;48.606;7.598;2023-04-25T02:15:16;12.63;62.35
76384;SHT30;65204;48.606;7.598;2023-04-25T02:15:47;12.67;62.14
76384;SHT30;65204;48.606;7.598;2023-04-25T02:16:17;12.72;61.97
76384;SHT30;65204;48.606;7.598;2023-04-25T02:16:47;12.67;61.95
76384;SHT30;65204;48.606;7.598;2023-04-25T02:17:18;12.72;62.04
76384;SHT30;65204;48.606;7.598;2023-04-25T02:17:48;12.70;62.04
76384;SHT30;65204;48.606;7.598;2023-04-25T02:18:18;12.67;62.12
76384;SHT30;65204;48.606;7.598;2023-04-25T02:18:49;12.70;62.17
76384;SHT30;65204;48.606;7.598;2023-04-25T02:19:22;12.70;62.44
76384;SHT30;65204;48.606;7.598;2023-04-25T02:19:53;12.69;62.40
76384;SHT30;65204;48.606;7.598;2023-04-25T02:20:24;12.69;62.33
76384;SHT30;65204;48.606;7.598;2023-04-25T02:20:54;12.67;62.38
76384;SHT30;65204;48.606;7.598;2023-04-25T02:21:25;12.67;62.75
76384;SHT30;65204;48.606;7.598;2023-04-25T02:21:56;12.67;62.76
76384;SHT30;65204;48.606;7.598;2023-04-25T02:22:27;12.67;62.70
76384;SHT30;65204;48.606;7.598;2023-04-25T02:23:00;12.67;62.66
76384;SHT30;65204;48.606;7.598;2023-04-25T02:23:30;12.64;62.95
76384;SHT30;65204;48.606;7.598;2023-04-25T02:24:01;12.66;62.96
76384;SHT30;65204;48.606;7.598;2023-04-25T02:24:31;12.64;62.91
76384;SHT30;65204;48.606;7.598;2023-04-25T02:25:04;12.69;62.89
76384;SHT30;65204;48.606;7.598;2023-04-25T02:25:34;12.66;62.84
76384;SHT30;65204;48.606;7.598;2023-04-25T02:26:05;12.67;62.79
76384;SHT30;65204;48.606;7.598;2023-04-25T02:26:35;12.72;62.62
76384;SHT30;65204;48.606;7.598;2023-04-25T02:27:06;12.72;62.84
76384;SHT30;65204;48.606;7.598;2023-04-25T02:27:37;12.69;62.99
76384;SHT30;65204;48.606;7.598;2023-04-25T02:28:08;12.72;62.98
76384;SHT30;65204;48.606;7.598;2023-04-25T02:28:39;12.70;63.22
76384;SHT30;65204;48.606;7.598;2023-04-25T02:29:09;12.72;62.98
76384;SHT30;65204;48.606;7.598;2023-04-25T02:29:40;12.69;62.88
76384;SHT30;65204;48.606;7.598;2023-04-25T02:30:10;12.69;62.74
76384;SHT30;65204;48.606;7.598;2023-04-25T02:30:41;12.72;62.65
76384;SHT30;65204;48.606;7.598;2023-04-25T02:31:11;12.73;62.84
76384;SHT30;65204;48.606;7.598;2023-04-25T02:31:42;12.73;62.56
76384;SHT30;65204;48.606;7.598;2023-04-25T02:32:12;12.73;62.62
76384;SHT30;65204;48.606;7.598;2023-04-25T02:32:43;12.72;62.64
76384;SHT30;65204;48.606;7.598;2023-04-25T02:33:13;12.70;62.64
76384;SHT30;65204;48.606;7.598;2023-04-25T02:33:43;12.75;62.60
76384;SHT30;65204;48.606;7.598;2023-04-25T02:34:14;12.73;62.50
76384;SHT30;65204;48.606;7.598;2023-04-25T02:34:44;12.76;62.52
76384;SHT30;65204;48.606;7.598;2023-04-25T02:35:14;12.77;62.37
76384;SHT30;65204;48.606;7.598;2023-04-25T02:35:45;12.80;62.35
76384;SHT30;65204;48.606;7.598;2023-04-25T02:36:15;12.77;62.27
76384;SHT30;65204;48.606;7.598;2023-04-25T02:36:48;12.76;62.28
76384;SHT30;65204;48.606;7.598;2023-04-25T02:37:18;12.73;62.42
76384;SHT30;65204;48.606;7.598;2023-04-25T02:37:49;12.70;62.46
76384;SHT30;65204;48.606;7.598;2023-04-25T02:38:19;12.70;62.37
76384;SHT30;65204;48.606;7.598;2023-04-25T02:38:49;12.72;62.46
76384;SHT30;65204;48.606;7.598;2023-04-25T02:39:20;12.70;62.40
76384;SHT30;65204;48.606;7.598;2023-04-25T02:39:52;12.69;62.37
76384;SHT30;65204;48.606;7.598;2023-04-25T02:40:22;12.70;62.28
76384;SHT30;65204;48.606;7.598;2023-04-25T02:40:52;12.69;62.43
76384;SHT30;65204;48.606;7.598;2023-04-25T02:41:23;12.69;62.62
76384;SHT30;65204;48.606;7.598;2023-04-25T02:41:54;12.69;63.15
76384;SHT30;65204;48.606;7.598;2023-04-25T02:42:24;12.70;63.37
76384;SHT30;65204;48.606;7.598;2023-04-25T02:42:54;12.67;63.53
76384;SHT30;65204;48.606;7.598;2023-04-25T02:43:25;12.69;63.40
76384;SHT30;65204;48.606;7.598;2023-04-25T02:43:55;12.64;63.67
76384;SHT30;65204;48.606;7.598;2023-04-25T02:44:25;12.69;63.23
76384;SHT30;65204;48.606;7.598;2023-04-25T02:44:56;12.72;63.72
76384;SHT30;65204;48.606;7.598;2023-04-25T02:45:26;12.73;63.86
76384;SHT30;65204;48.606;7.598;2023-04-25T02:45:56;12.73;63.55
76384;SHT30;65204;48.606;7.598;2023-04-25T02:46:27;12.73;63.19
76384;SHT30;65204;48.606;7.598;2023-04-25T02:46:57;12.72;62.91
76384;SHT30;65204;48.606;7.598;2023-04-25T02:47:27;12.72;62.86
76384;SHT30;65204;48.606;7.598;2023-04-25T02:47:58;12.75;62.96
76384;SHT30;65204;48.606;7.598;2023-04-25T02:48:28;12.73;63.33
76384;SHT30;65204;48.606;7.598;2023-04-25T02:48:59;12.73;63.17
76384;SHT30;65204;48.606;7.598;2023-04-25T02:49:29;12.70;63.31
76384;SHT30;65204;48.606;7.598;2023-04-25T02:50:00;12.75;63.42
76384;SHT30;65204;48.606;7.598;2023-04-25T02:50:30;12.77;63.47
76384;SHT30;65204;48.606;7.598;2023-04-25T02:51:00;12.77;63.46
76384;SHT30;65204;48.606;7.598;2023-04-25T02:51:31;12.79;63.26
76384;SHT30;65204;48.606;7.598;2023-04-25T02:52:02;12.79;63.21
76384;SHT30;65204;48.606;7.598;2023-04-25T02:52:32;12.79;63.22
76384;SHT30;65204;48.606;7.598;2023-04-25T02:53:02;12.79;63.49
76384;SHT30;65204;48.606;7.598;2023-04-25T02:53:33;12.77;62.99
76384;SHT30;65204;48.606;7.598;2023-04-25T02:54:03;12.76;63.12
76384;SHT30;65204;48.606;7.598;2023-04-25T02:54:34;12.76;63.11
76384;SHT30;65204;48.606;7.598;2023-04-25T02:55:04;12.76;63.11
76384;SHT30;65204;48.606;7.598;2023-04-25T02:55:35;12.77;63.26
76384;SHT30;65204;48.606;7.598;2023-04-25T02:56:05;12.76;63.28
76384;SHT30;65204;48.606;7.598;2023-04-25T02:56:36;12.73;63.44
76384;SHT30;65204;48.606;7.598;2023-04-25T02:57:07;12.73;63.54
76384;SHT30;65204;48.606;7.598;2023-04-25T02:57:37;12.72;63.65
76384;SHT30;65204;48.606;7.598;2023-04-25T02:58:07;12.72;63.42
76384;SHT30;65204;48.606;7.598;2023-04-25T02:58:39;12.70;63.33
76384;SHT30;65204;48.606;7.598;2023-04-25T02:59:09;12.69;62.85
76384;SHT30;65204;48.606;7.598;2023-04-25T02:59:40;12.70;62.99
76384;SHT30;65204;48.606;7.598;2023-04-25T03:00:10;12.70;62.98
76384;SHT30;65204;48.606;7.598;2023-04-25T03:00:41;12.69;63.24
76384;SHT30;65204;48.606;7.598;2023-04-25T03:01:12;12.70;63.11
76384;SHT30;65204;48.606;7.598;2023-04-25T03:01:42;12.70;62.89
76384;SHT30;65204;48.606;7.598;2023-04-25T03:02:12;12.69;62.51
76384;SHT30;65204;48.606;7.598;2023-04-25T03:02:43;12.70;62.34
76384;SHT30;65204;48.606;7.598;2023-04-25T03:03:14;12.67;62.59
76384;SHT30;65204;48.606;7.598;2023-04-25T03:03:47;12.66;62.48
76384;SHT30;65204;48.606;7.598;2023-04-25T03:04:17;12.66;62.60
76384;SHT30;65204;48.606;7.598;2023-04-25T03:04:49;12.67;62.49
76384;SHT30;65204;48.606;7.598;2023-04-25T03:05:19;12.66;62.57
76384;SHT30;65204;48.606;7.598;2023-04-25T03:05:50;12.64;63.21
76384;SHT30;65204;48.606;7.598;2023-04-25T03:06:21;12.66;63.41
76384;SHT30;65204;48.606;7.598;2023-04-25T03:06:51;12.63;63.45
76384;SHT30;65204;48.606;7.598;2023-04-25T03:07:22;12.63;63.74
76384;SHT30;65204;48.606;7.598;2023-04-25T03:07:52;12.62;63.61
76384;SHT30;65204;48.606;7.598;2023-04-25T03:08:22;12.63;63.46
76384;SHT30;65204;48.606;7.598;2023-04-25T03:08:53;12.63;63.57
76384;SHT30;65204;48.606;7.598;2023-04-25T03:09:23;12.63;63.60
76384;SHT30;65204;48.606;7.598;2023-04-25T03:09:53;12.63;63.63
76384;SHT30;65204;48.606;7.598;2023-04-25T03:10:24;12.63;63.67
76384;SHT30;65204;48.606;7.598;2023-04-25T03:10:54;12.64;63.62
76384;SHT30;65204;48.606;7.598;2023-04-25T03:11:25;12.63;63.66
76384;SHT30;65204;48.606;7.598;2023-04-25T03:11:55;12.64;63.70
76384;SHT30;65204;48.606;7.598;2023-04-25T03:12:26;12.63;63.99
76384;SHT30;65204;48.606;7.598;2023-04-25T03:12:56;12.64;63.78
76384;SHT30;65204;48.606;7.598;2023-04-25T03:13:26;12.64;63.88
76384;SHT30;65204;48.606;7.598;2023-04-25T03:13:57;12.64;63.91
76384;SHT30;65204;48.606;7.598;2023-04-25T03:14:27;12.66;63.75